createdAt,value
2023-09-23T00:08:22.816Z,11.91
2023-09-23T00:10:52.010Z,11.87
2023-09-23T00:13:21.563Z,11.85
2023-09-23T00:15:48.065Z,11.85
2023-09-23T00:18:18.642Z,11.85
2023-09-23T00:20:47.409Z,11.88
2023-09-23T00:23:14.744Z,11.83
2023-09-23T00:25:41.336Z,11.80
2023-09-23T00:28:12.443Z,11.82
2023-09-23T00:30:39.362Z,11.77
2023-09-23T00:33:07.172Z,11.80
2023-09-23T00:35:37.404Z,11.93
2023-09-23T00:38:05.512Z,11.81
2023-09-23T00:40:33.903Z,11.73
2023-09-23T00:43:07.420Z,11.78
2023-09-23T00:45:35.632Z,11.80
2023-09-23T00:48:02.745Z,11.68
2023-09-23T00:50:30.643Z,11.71
2023-09-23T00:52:57.765Z,11.62
2023-09-23T00:55:25.394Z,11.62
2023-09-23T00:58:01.697Z,11.59
2023-09-23T01:00:30.373Z,11.52
2023-09-23T01:02:57.686Z,11.56
2023-09-23T01:05:28.558Z,11.65
2023-09-23T01:08:12.339Z,11.66
2023-09-23T01:10:39.973Z,11.67
2023-09-23T01:13:09.205Z,11.59
2023-09-23T01:15:44.216Z,11.51
2023-09-23T01:18:24.358Z,11.51
2023-09-23T01:20:52.438Z,11.52
2023-09-23T01:23:19.044Z,11.39
2023-09-23T01:25:45.619Z,11.38
2023-09-23T01:28:15.098Z,11.44
2023-09-23T01:30:42.026Z,11.34
2023-09-23T01:33:08.931Z,11.31
2023-09-23T01:35:36.176Z,11.31
2023-09-23T01:38:06.246Z,11.36
2023-09-23T01:40:37.198Z,11.38
2023-09-23T01:43:05.045Z,11.38
2023-09-23T01:45:31.588Z,11.40
2023-09-23T01:47:58.459Z,11.40
2023-09-23T01:50:25.705Z,11.35
2023-09-23T01:52:52.622Z,11.33
2023-09-23T01:55:19.656Z,11.38
2023-09-23T01:57:49.148Z,11.44
2023-09-23T02:00:19.173Z,11.45
2023-09-23T02:02:46.308Z,11.49
2023-09-23T02:05:13.275Z,11.47
2023-09-23T02:07:40.812Z,11.52
2023-09-23T02:10:09.886Z,11.50
2023-09-23T02:12:36.463Z,11.48
2023-09-23T02:15:03.878Z,11.49
2023-09-23T02:17:30.341Z,11.55
2023-09-23T02:19:58.421Z,11.46
2023-09-23T02:22:24.810Z,11.52
2023-09-23T02:24:51.292Z,11.53
2023-09-23T02:27:18.071Z,11.55
2023-09-23T02:29:44.534Z,11.50
2023-09-23T02:32:11.194Z,11.45
2023-09-23T02:34:37.979Z,11.54
2023-09-23T02:37:05.594Z,11.51
2023-09-23T02:39:32.599Z,11.48
2023-09-23T02:42:00.924Z,11.43
2023-09-23T02:44:31.071Z,11.42
2023-09-23T02:46:57.624Z,11.35
2023-09-23T02:49:24.167Z,11.27
2023-09-23T02:51:50.679Z,11.31
2023-09-23T02:54:19.107Z,11.27
2023-09-23T02:56:47.797Z,11.17
2023-09-23T02:59:16.380Z,11.20
2023-09-23T03:01:46.983Z,11.22
2023-09-23T03:04:17.871Z,11.13
2023-09-23T03:06:50.559Z,11.12
2023-09-23T03:09:25.447Z,11.15
2023-09-23T03:11:56.576Z,11.10
2023-09-23T03:14:31.286Z,11.06
2023-09-23T03:16:58.839Z,11.08
2023-09-23T03:19:26.211Z,11.06
2023-09-23T03:21:55.941Z,11.01
2023-09-23T03:24:23.426Z,11.00
2023-09-23T03:26:56.109Z,11.02
2023-09-23T03:29:23.705Z,10.97
2023-09-23T03:31:50.756Z,10.96
2023-09-23T03:34:18.157Z,10.91
2023-09-23T03:36:45.831Z,10.95
2023-09-23T03:39:12.273Z,10.91
2023-09-23T03:41:38.943Z,10.85
2023-09-23T03:44:06.384Z,10.85
2023-09-23T03:46:32.881Z,10.85
2023-09-23T03:48:59.345Z,10.79
2023-09-23T03:51:25.837Z,10.81
2023-09-23T03:53:54.912Z,10.78
2023-09-23T03:56:25.578Z,10.79
2023-09-23T03:58:54.042Z,10.76
2023-09-23T04:01:21.262Z,10.70
2023-09-23T04:03:47.793Z,10.63
2023-09-23T04:06:14.276Z,10.64
2023-09-23T04:08:40.728Z,10.60
2023-09-23T04:11:09.880Z,10.57
2023-09-23T04:13:36.285Z,10.53
2023-09-23T04:16:02.796Z,10.50
2023-09-23T04:18:30.747Z,10.48
2023-09-23T04:20:57.350Z,10.44
2023-09-23T04:23:23.750Z,10.45
2023-09-23T04:25:53.478Z,10.48
2023-09-23T04:28:20.300Z,10.43
2023-09-23T04:30:46.806Z,10.40
2023-09-23T04:33:16.174Z,10.37
2023-09-23T04:35:42.589Z,10.34
2023-09-23T04:38:09.129Z,10.29
2023-09-23T04:40:35.500Z,10.30
2023-09-23T04:43:04.369Z,10.25
2023-09-23T04:45:30.894Z,10.29
2023-09-23T04:47:57.475Z,10.26
2023-09-23T04:50:28.772Z,10.26
2023-09-23T04:52:55.717Z,10.16
2023-09-23T04:55:23.331Z,10.14
2023-09-23T04:57:49.793Z,10.08
2023-09-23T05:00:20.926Z,10.03
2023-09-23T05:02:50.490Z,10.00
2023-09-23T05:05:22.076Z,9.94
2023-09-23T05:07:48.689Z,9.94
2023-09-23T05:10:15.095Z,9.96
2023-09-23T05:12:42.260Z,10.00
2023-09-23T05:15:11.272Z,10.03
2023-09-23T05:17:38.448Z,10.02
2023-09-23T05:20:20.606Z,10.07
2023-09-23T05:22:47.427Z,10.04
2023-09-23T05:25:14.527Z,10.03
2023-09-23T05:27:41.594Z,9.99
2023-09-23T05:30:09.042Z,9.94
2023-09-23T05:32:38.153Z,9.96
2023-09-23T05:35:10.907Z,9.94
2023-09-23T05:37:38.422Z,9.95
2023-09-23T05:40:22.103Z,9.96
2023-09-23T05:42:51.820Z,9.98
2023-09-23T05:45:19.456Z,10.00
2023-09-23T05:47:46.607Z,10.01
2023-09-23T05:50:14.781Z,10.02
2023-09-23T05:52:41.197Z,10.06
2023-09-23T05:55:09.095Z,10.06
2023-09-23T05:57:35.990Z,10.05
2023-09-23T06:00:06.011Z,10.08
2023-09-23T06:02:33.293Z,10.09
2023-09-23T06:05:02.260Z,10.08
2023-09-23T06:07:34.824Z,10.05
2023-09-23T06:10:01.405Z,10.07
2023-09-23T06:12:30.596Z,10.05
2023-09-23T06:15:01.298Z,10.08
2023-09-23T06:17:29.485Z,10.08
2023-09-23T06:20:00.953Z,10.15
2023-09-23T06:22:28.536Z,10.23
2023-09-23T06:24:55.593Z,10.28
2023-09-23T06:27:22.008Z,10.29
2023-09-23T06:29:48.464Z,10.31
2023-09-23T06:32:14.990Z,10.43
2023-09-23T06:34:41.460Z,10.52
2023-09-23T06:37:07.850Z,10.53
2023-09-23T06:39:34.346Z,10.66
2023-09-23T06:42:00.765Z,10.72
2023-09-23T06:44:27.273Z,10.82
2023-09-23T06:46:53.838Z,10.85
2023-09-23T06:49:20.494Z,10.96
2023-09-23T06:51:46.888Z,11.08
2023-09-23T06:54:13.266Z,11.16
2023-09-23T06:56:39.700Z,11.27
2023-09-23T06:59:06.063Z,11.30
2023-09-23T07:01:34.446Z,11.42
2023-09-23T07:06:50.715Z,11.58
2023-09-23T07:09:17.110Z,11.69
2023-09-23T07:11:43.571Z,11.73
2023-09-23T07:14:10.045Z,11.89
2023-09-23T07:16:36.501Z,11.94
2023-09-23T07:19:02.911Z,11.98
2023-09-23T07:21:29.912Z,12.09
2023-09-23T07:23:58.083Z,12.26
2023-09-23T07:26:24.484Z,12.40
2023-09-23T07:28:51.717Z,12.47
2023-09-23T07:31:19.015Z,12.52
2023-09-23T07:33:46.357Z,12.63
2023-09-23T07:36:13.960Z,12.67
2023-09-23T07:38:41.043Z,12.70
2023-09-23T07:41:08.514Z,12.73
2023-09-23T07:43:34.939Z,12.88
2023-09-23T07:46:01.536Z,12.96
2023-09-23T07:48:27.901Z,12.98
2023-09-23T07:50:55.606Z,13.04
2023-09-23T07:53:22.969Z,13.08
2023-09-23T07:55:50.087Z,13.26
2023-09-23T07:58:16.648Z,13.22
2023-09-23T08:00:43.034Z,13.44
2023-09-23T08:03:09.483Z,13.54
2023-09-23T08:05:36.012Z,13.56
2023-09-23T08:08:02.531Z,13.62
2023-09-23T08:10:28.960Z,13.64
2023-09-23T08:12:55.361Z,13.74
2023-09-23T08:15:21.741Z,13.81
2023-09-23T08:17:48.215Z,13.85
2023-09-23T08:20:25.025Z,14.00
2023-09-23T08:22:51.753Z,14.04
2023-09-23T08:25:20.938Z,14.23
2023-09-23T08:27:48.019Z,14.27
2023-09-23T08:30:17.423Z,14.40
2023-09-23T08:32:44.097Z,14.50
2023-09-23T08:35:11.625Z,14.53
2023-09-23T08:37:38.401Z,14.40
2023-09-23T08:40:11.964Z,14.59
2023-09-23T08:42:39.849Z,14.71
2023-09-23T08:45:09.145Z,14.68
2023-09-23T08:47:39.229Z,14.73
2023-09-23T08:50:11.919Z,14.73
2023-09-23T08:52:38.909Z,14.61
2023-09-23T08:55:07.142Z,14.57
2023-09-23T08:57:34.102Z,14.47
2023-09-23T09:00:00.485Z,14.52
2023-09-23T09:02:27.319Z,14.50
2023-09-23T09:04:58.658Z,14.56
2023-09-23T09:07:35.735Z,14.58
2023-09-23T09:10:03.865Z,14.53
2023-09-23T09:12:32.129Z,14.64
2023-09-23T09:14:58.537Z,14.64
2023-09-23T09:17:25.071Z,14.60
2023-09-23T09:19:51.986Z,14.76
2023-09-23T09:22:20.340Z,14.84
2023-09-23T09:24:47.786Z,14.78
2023-09-23T09:27:15.294Z,14.94
2023-09-23T09:29:42.195Z,14.90
2023-09-23T09:32:11.043Z,14.80
2023-09-23T09:34:44.839Z,14.91
2023-09-23T09:37:13.880Z,15.07
2023-09-23T09:39:57.392Z,15.18
2023-09-23T09:42:34.546Z,15.12
2023-09-23T09:45:01.190Z,15.14
2023-09-23T09:47:28.692Z,15.21
2023-09-23T09:49:58.206Z,15.20
2023-09-23T09:52:27.192Z,15.27
2023-09-23T09:54:56.380Z,15.31
2023-09-23T09:57:24.162Z,15.23
2023-09-23T09:59:53.878Z,15.29
2023-09-23T10:02:22.551Z,15.42
2023-09-23T10:04:52.545Z,15.38
2023-09-23T10:07:19.230Z,15.39
2023-09-23T10:09:55.388Z,15.30
2023-09-23T10:12:34.477Z,15.28
2023-09-23T10:15:02.981Z,15.27
2023-09-23T10:17:32.828Z,15.29
2023-09-23T10:19:59.946Z,15.48
2023-09-23T10:22:29.594Z,15.82
2023-09-23T10:25:05.360Z,16.07
2023-09-23T10:27:33.310Z,16.25
2023-09-23T10:30:01.100Z,16.64
2023-09-23T10:32:27.637Z,17.04
2023-09-23T10:34:59.976Z,17.19
2023-09-23T10:37:31.201Z,17.18
2023-09-23T10:40:05.017Z,16.99
2023-09-23T10:42:33.970Z,16.89
2023-09-23T10:45:00.926Z,17.22
2023-09-23T10:47:27.449Z,17.58
2023-09-23T10:49:54.021Z,17.68
2023-09-23T10:52:21.127Z,17.61
2023-09-23T10:54:49.389Z,17.81
2023-09-23T10:57:15.792Z,17.84
2023-09-23T10:59:45.023Z,17.91
2023-09-23T11:02:12.450Z,17.96
2023-09-23T11:04:39.254Z,17.97
2023-09-23T11:07:07.312Z,18.01
2023-09-23T11:09:34.039Z,18.06
2023-09-23T11:12:08.081Z,18.20
2023-09-23T11:14:34.594Z,18.44
2023-09-23T11:17:01.435Z,18.61
2023-09-23T11:19:27.889Z,18.85
2023-09-23T11:21:54.286Z,18.78
2023-09-23T11:24:21.266Z,18.88
2023-09-23T11:26:47.859Z,19.06
2023-09-23T11:29:14.618Z,18.99
2023-09-23T11:31:41.124Z,19.19
2023-09-23T11:34:08.018Z,19.25
2023-09-23T11:36:34.700Z,19.08
2023-09-23T11:39:02.091Z,19.23
2023-09-23T11:41:28.994Z,19.27
2023-09-23T11:43:55.617Z,19.65
2023-09-23T11:46:23.421Z,19.39
2023-09-23T11:48:50.017Z,19.36
2023-09-23T11:51:19.211Z,19.31
2023-09-23T11:53:46.332Z,19.31
2023-09-23T11:56:13.688Z,19.56
2023-09-23T11:58:41.506Z,19.51
2023-09-23T12:01:11.170Z,19.70
2023-09-23T12:03:37.909Z,19.69
2023-09-23T12:06:04.497Z,19.85
2023-09-23T12:08:31.014Z,20.06
2023-09-23T12:10:57.630Z,19.96
2023-09-23T12:13:25.841Z,20.16
2023-09-23T12:15:53.779Z,19.93
2023-09-23T12:18:20.264Z,20.13
2023-09-23T12:20:46.716Z,19.98
2023-09-23T12:23:16.595Z,20.06
2023-09-23T12:25:44.173Z,20.12
2023-09-23T12:28:10.542Z,20.26
2023-09-23T12:30:36.996Z,20.26
2023-09-23T12:33:03.536Z,20.28
2023-09-23T12:35:29.965Z,20.39
2023-09-23T12:37:56.663Z,20.52
2023-09-23T12:40:23.098Z,20.40
2023-09-23T12:42:49.507Z,20.28
2023-09-23T12:45:15.973Z,20.17
2023-09-23T12:47:56.195Z,20.14
2023-09-23T12:50:23.759Z,19.96
2023-09-23T12:52:50.292Z,20.06
2023-09-23T12:55:16.701Z,20.12
2023-09-23T12:57:43.044Z,19.77
2023-09-23T13:00:09.948Z,19.68
2023-09-23T13:02:36.499Z,19.83
2023-09-23T13:05:03.684Z,19.84
2023-09-23T13:07:30.210Z,19.75
2023-09-23T13:09:57.118Z,19.57
2023-09-23T13:12:23.595Z,19.79
2023-09-23T13:14:50.134Z,19.53
2023-09-23T13:17:17.282Z,19.38
2023-09-23T13:19:43.732Z,19.40
2023-09-23T13:22:10.166Z,19.30
2023-09-23T13:24:36.869Z,19.21
2023-09-23T13:27:04.548Z,19.34
2023-09-23T13:29:32.261Z,19.40
2023-09-23T13:31:59.588Z,19.41
2023-09-23T13:34:26.062Z,19.18
2023-09-23T13:36:52.716Z,19.14
2023-09-23T13:39:19.109Z,19.20
2023-09-23T13:41:45.522Z,19.20
2023-09-23T13:44:12.055Z,19.28
2023-09-23T13:46:38.565Z,19.26
2023-09-23T13:49:05.314Z,19.28
2023-09-23T13:51:32.428Z,19.34
2023-09-23T13:53:59.730Z,19.22
2023-09-23T13:56:26.397Z,19.15
2023-09-23T13:58:53.384Z,18.99
2023-09-23T14:01:20.026Z,18.86
2023-09-23T14:03:46.410Z,18.66
2023-09-23T14:06:12.835Z,18.65
2023-09-23T14:08:39.215Z,18.59
2023-09-23T14:11:06.494Z,18.71
2023-09-23T14:13:33.119Z,18.75
2023-09-23T14:15:59.462Z,18.55
2023-09-23T14:18:26.074Z,18.52
2023-09-23T14:20:53.284Z,18.55
2023-09-23T14:23:19.902Z,18.49
2023-09-23T14:25:46.555Z,18.31
2023-09-23T14:28:13.023Z,18.23
2023-09-23T14:30:39.575Z,18.16
2023-09-23T14:33:06.803Z,18.31
2023-09-23T14:35:33.417Z,18.19
2023-09-23T14:37:59.874Z,18.12
2023-09-23T14:40:28.219Z,17.88
2023-09-23T14:42:56.140Z,17.89
2023-09-23T14:45:23.428Z,17.90
2023-09-23T14:47:50.447Z,17.93
2023-09-23T14:50:17.102Z,17.90
2023-09-23T14:52:45.348Z,17.85
2023-09-23T14:55:11.816Z,17.73
2023-09-23T14:57:38.447Z,17.70
2023-09-23T15:00:06.307Z,17.70
2023-09-23T15:02:33.189Z,17.69
2023-09-23T15:04:59.906Z,17.73
2023-09-23T15:07:26.387Z,17.66
2023-09-23T15:09:52.800Z,17.58
2023-09-23T15:12:19.214Z,17.59
2023-09-23T15:14:47.641Z,17.58
2023-09-23T15:17:14.346Z,17.58
2023-09-23T15:19:40.845Z,17.54
2023-09-23T15:22:07.244Z,17.54
2023-09-23T15:24:34.348Z,17.53
2023-09-23T15:27:00.803Z,17.53
2023-09-23T15:29:28.309Z,17.48
2023-09-23T15:31:54.841Z,17.46
2023-09-23T15:34:23.487Z,17.42
2023-09-23T15:36:50.713Z,17.38
2023-09-23T15:39:17.145Z,17.38
2023-09-23T15:41:43.758Z,17.32
2023-09-23T15:44:10.464Z,17.29
2023-09-23T15:46:37.003Z,17.34
2023-09-23T15:49:03.909Z,17.40
2023-09-23T15:51:31.440Z,17.42
2023-09-23T15:54:00.753Z,17.45
2023-09-23T15:56:27.270Z,17.46
2023-09-23T15:58:54.118Z,17.46
2023-09-23T16:01:20.835Z,17.51
2023-09-23T16:03:47.482Z,17.44
2023-09-23T16:06:14.155Z,17.48
2023-09-23T16:08:40.935Z,17.44
2023-09-23T16:11:07.504Z,17.44
2023-09-23T16:13:34.064Z,17.40
2023-09-23T16:16:00.770Z,17.36
2023-09-23T16:18:27.418Z,17.35
2023-09-23T16:20:54.176Z,17.37
2023-09-23T16:23:20.777Z,17.35
2023-09-23T16:25:47.355Z,17.28
2023-09-23T16:28:14.109Z,17.27
2023-09-23T16:30:42.649Z,17.17
2023-09-23T16:33:09.116Z,17.09
2023-09-23T16:35:36.733Z,17.11
2023-09-23T16:38:03.390Z,17.06
2023-09-23T16:40:30.028Z,17.01
2023-09-23T16:42:56.443Z,16.99
2023-09-23T16:45:22.816Z,16.97
2023-09-23T16:47:49.251Z,16.94
2023-09-23T16:50:15.917Z,16.86
2023-09-23T16:52:42.865Z,16.82
2023-09-23T16:55:10.074Z,16.84
2023-09-23T16:57:37.130Z,16.77
2023-09-23T17:00:05.409Z,16.72
2023-09-23T17:02:32.015Z,16.66
2023-09-23T17:05:00.001Z,16.62
2023-09-23T17:07:26.565Z,16.56
2023-09-23T17:09:53.918Z,16.50
2023-09-23T17:12:20.454Z,16.45
2023-09-23T17:14:47.304Z,16.43
2023-09-23T17:17:14.920Z,16.36
2023-09-23T17:19:42.651Z,16.23
2023-09-23T17:22:10.462Z,16.17
2023-09-23T17:24:36.801Z,16.11
2023-09-23T17:27:04.149Z,15.95
2023-09-23T17:29:34.508Z,15.88
2023-09-23T17:32:01.007Z,15.81
2023-09-23T17:34:27.470Z,15.79
2023-09-23T17:36:54.015Z,15.68
2023-09-23T17:39:20.767Z,15.61
2023-09-23T17:41:47.236Z,15.62
2023-09-23T17:44:13.715Z,15.58
2023-09-23T17:46:40.222Z,15.55
2023-09-23T17:49:06.743Z,15.53
2023-09-23T17:51:33.160Z,15.43
2023-09-23T17:53:59.666Z,15.37
2023-09-23T17:56:28.239Z,15.31
2023-09-23T17:58:55.359Z,15.28
2023-09-23T18:01:21.938Z,15.21
2023-09-23T18:03:48.876Z,15.23
2023-09-23T18:06:16.554Z,15.12
2023-09-23T18:08:43.353Z,15.12
2023-09-23T18:11:13.571Z,15.09
2023-09-23T18:13:42.897Z,15.07
2023-09-23T18:16:09.440Z,15.06
2023-09-23T18:18:36.049Z,14.97
2023-09-23T18:21:02.433Z,15.00
2023-09-23T18:23:29.252Z,14.86
2023-09-23T18:25:56.054Z,14.86
2023-09-23T18:28:22.585Z,14.77
2023-09-23T18:30:48.931Z,14.69
2023-09-23T18:33:15.509Z,14.65
2023-09-23T18:35:42.111Z,14.70
2023-09-23T18:38:08.749Z,14.57
2023-09-23T18:40:35.235Z,14.53
2023-09-23T18:43:01.665Z,14.52
2023-09-23T18:45:28.192Z,14.43
2023-09-23T18:48:06.988Z,14.45
2023-09-23T18:50:41.856Z,14.36
2023-09-23T18:53:08.298Z,14.28
2023-09-23T18:55:37.989Z,14.28
2023-09-23T18:58:06.230Z,14.22
2023-09-23T19:00:32.909Z,14.09
2023-09-23T19:02:59.455Z,14.09
2023-09-23T19:05:26.011Z,14.03
2023-09-23T19:07:52.522Z,14.02
2023-09-23T19:10:18.952Z,13.99
2023-09-23T19:12:45.331Z,13.95
2023-09-23T19:15:16.604Z,13.83
2023-09-23T19:17:43.654Z,13.75
2023-09-23T19:20:10.926Z,13.66
2023-09-23T19:22:38.184Z,13.63
2023-09-23T19:25:06.287Z,13.59
2023-09-23T19:27:32.633Z,13.49
2023-09-23T19:29:58.998Z,13.39
2023-09-23T19:32:25.851Z,13.35
2023-09-23T19:34:52.330Z,13.34
2023-09-23T19:37:18.702Z,13.30
2023-09-23T19:39:45.042Z,13.26
2023-09-23T19:42:11.381Z,13.21
2023-09-23T19:44:37.916Z,13.18
2023-09-23T19:47:05.569Z,13.15
2023-09-23T19:49:31.962Z,13.13
2023-09-23T19:51:58.636Z,13.15
2023-09-23T19:54:25.303Z,13.14
2023-09-23T19:56:51.858Z,13.13
2023-09-23T19:59:20.925Z,13.10
2023-09-23T20:01:48.078Z,13.02
2023-09-23T20:04:14.553Z,13.06
2023-09-23T20:06:42.434Z,13.02
2023-09-23T20:09:10.080Z,12.92
2023-09-23T20:11:36.762Z,12.92
2023-09-23T20:14:03.219Z,12.82
2023-09-23T20:16:30.354Z,12.75
2023-09-23T20:18:58.592Z,12.66
2023-09-23T20:21:25.094Z,12.53
2023-09-23T20:23:52.664Z,12.49
2023-09-23T20:26:20.346Z,12.47
2023-09-23T20:28:46.732Z,12.33
2023-09-23T20:31:16.199Z,12.18
2023-09-23T20:33:43.725Z,12.13
2023-09-23T20:36:10.222Z,12.00
2023-09-23T20:38:37.049Z,12.01
2023-09-23T20:41:03.981Z,12.00
2023-09-23T20:43:31.556Z,12.00
2023-09-23T20:45:58.100Z,11.90
2023-09-23T20:48:24.603Z,11.88
2023-09-23T20:50:51.159Z,11.89
2023-09-23T20:53:17.579Z,11.89
2023-09-23T20:55:44.161Z,11.75
2023-09-23T20:58:10.635Z,11.60
2023-09-23T21:00:37.192Z,11.58
2023-09-23T21:03:05.810Z,11.46
2023-09-23T21:05:34.224Z,11.31
2023-09-23T21:08:00.690Z,11.29
2023-09-23T21:10:27.120Z,11.39
2023-09-23T21:12:53.656Z,11.36
2023-09-23T21:15:20.079Z,11.38
2023-09-23T21:17:47.486Z,11.38
2023-09-23T21:20:15.641Z,11.34
2023-09-23T21:22:44.146Z,11.30
2023-09-23T21:25:11.902Z,11.29
2023-09-23T21:27:38.422Z,11.32
2023-09-23T21:30:07.018Z,11.33
2023-09-23T21:32:33.729Z,11.37
2023-09-23T21:35:00.374Z,11.34
2023-09-23T21:37:26.824Z,11.34
2023-09-23T21:39:54.154Z,11.33
2023-09-23T21:42:20.553Z,11.32
2023-09-23T21:44:49.844Z,11.23
2023-09-23T21:47:18.880Z,11.29
2023-09-23T21:49:45.880Z,11.25
2023-09-23T21:52:12.291Z,11.20
2023-09-23T21:54:38.754Z,11.21
2023-09-23T21:57:05.487Z,11.10
2023-09-23T21:59:31.964Z,11.05
2023-09-23T22:01:59.429Z,10.91
2023-09-23T22:04:25.873Z,10.89
2023-09-23T22:06:52.674Z,10.84
2023-09-23T22:09:20.507Z,10.77
2023-09-23T22:11:49.173Z,10.74
2023-09-23T22:14:16.304Z,10.77
2023-09-23T22:16:42.977Z,10.71
2023-09-23T22:19:10.192Z,10.62
2023-09-23T22:21:40.999Z,10.65
2023-09-23T22:24:07.982Z,10.68
2023-09-23T22:26:35.696Z,10.61
2023-09-23T22:29:04.046Z,10.52
2023-09-23T22:31:30.715Z,10.47
2023-09-23T22:33:57.329Z,10.40
2023-09-23T22:36:24.023Z,10.38
2023-09-23T22:38:50.486Z,10.26
2023-09-23T22:41:17.605Z,10.21
2023-09-23T22:43:44.229Z,10.16
2023-09-23T22:46:10.916Z,10.22
2023-09-23T22:48:37.419Z,10.16
2023-09-23T22:51:05.145Z,10.03
2023-09-23T22:53:31.528Z,10.15
2023-09-23T22:55:59.837Z,10.04
2023-09-23T22:58:27.304Z,10.03
2023-09-23T23:00:53.856Z,10.01
2023-09-23T23:03:20.334Z,10.00
2023-09-23T23:05:46.985Z,9.98
2023-09-23T23:08:13.502Z,9.99
2023-09-23T23:10:39.860Z,10.01
2023-09-23T23:13:09.800Z,10.03
2023-09-23T23:15:37.120Z,10.02
2023-09-23T23:18:04.832Z,10.00
2023-09-23T23:20:33.316Z,9.86
2023-09-23T23:22:59.787Z,9.77
2023-09-23T23:25:26.209Z,9.77
2023-09-23T23:27:52.752Z,9.78
2023-09-23T23:30:19.921Z,9.73
2023-09-23T23:32:47.541Z,9.70
2023-09-23T23:35:17.953Z,9.67
2023-09-23T23:37:46.495Z,9.69
2023-09-23T23:40:12.866Z,9.70
2023-09-23T23:42:40.339Z,9.63
2023-09-23T23:45:07.596Z,9.66
2023-09-23T23:47:34.056Z,9.67
2023-09-23T23:50:00.575Z,9.64
2023-09-23T23:52:30.496Z,9.69
2023-09-23T23:54:57.991Z,9.69
2023-09-23T23:57:25.949Z,9.73
2023-09-23T23:59:53.494Z,9.74
